Time;durP1;ratioP1;P1;durP2;ratioP2;P2;SDS_P1;SDS_P2;PMS_P1;PMS_P2;Temp;Humidity;BMP_temperature;BMP_pressure;BME280_temperature;BME280_humidity;BME280_pressure;Samples;Min_cycle;Max_cycle;Signal;HPM_P1;HPM_P2
2021/12/14 00:02:16;;;;;;;1.13;1.07;;;7.40;88.50;6.60;99300.00;;;;5116205;28;20277;-73
2021/12/14 00:04:45;;;;;;;2.67;1.70;;;7.40;88.60;6.50;99292.00;;;;5115841;28;20623;-73
2021/12/14 00:07:17;;;;;;;1.50;1.50;;;7.30;88.50;6.60;99299.00;;;;5115866;28;20258;-72
2021/12/14 00:09:45;;;;;;;2.63;1.47;;;7.40;88.80;6.60;99312.00;;;;5097986;28;20208;-72
2021/12/14 00:12:32;;;;;;;2.57;2.30;;;7.40;88.80;6.60;99298.00;;;;5115581;28;20283;-72
2021/12/14 00:15:05;;;;;;;3.23;2.53;;;7.40;88.60;6.60;99309.00;;;;5115707;28;20326;-72
2021/12/14 00:17:41;;;;;;;1.03;1.03;;;7.40;89.60;6.60;99309.00;;;;5115735;28;20249;-72
2021/12/14 00:20:17;;;;;;;1.30;1.30;;;7.30;88.70;6.50;99299.00;;;;5115583;28;20225;-72
2021/12/14 00:25:37;;;;;;;2.20;1.93;;;7.30;89.00;6.60;99296.00;;;;5115575;28;20205;-72
2021/12/14 00:28:11;;;;;;;1.20;1.20;;;7.40;88.80;6.60;99305.00;;;;5115344;28;20253;-71
2021/12/14 00:30:41;;;;;;;2.43;1.30;;;7.40;88.70;6.50;99314.00;;;;5114429;28;20270;-72
2021/12/14 00:33:12;;;;;;;1.57;1.50;;;7.30;88.60;6.60;99306.00;;;;5115327;28;20234;-73
2021/12/14 00:35:40;;;;;;;1.57;1.47;;;7.40;88.80;6.60;99308.00;;;;5115210;28;20757;-72
2021/12/14 00:38:07;;;;;;;3.13;2.80;;;7.40;88.80;6.50;99299.00;;;;5115407;28;20628;-72
2021/12/14 00:40:42;;;;;;;3.67;1.77;;;7.30;88.60;6.50;99308.00;;;;5115163;28;20536;-71
2021/12/14 00:43:12;;;;;;;1.87;1.77;;;7.30;88.80;6.40;99297.00;;;;5115067;28;20226;-72
2021/12/14 00:45:43;;;;;;;1.07;1.07;;;7.30;89.00;6.40;99313.00;;;;5115077;28;20624;-72
2021/12/14 00:48:13;;;;;;;1.67;1.57;;;7.30;89.20;6.40;99318.00;;;;5115031;28;20250;-72
2021/12/14 00:50:47;;;;;;;3.57;2.10;;;7.20;89.40;6.50;99312.00;;;;5115137;28;20642;-72
2021/12/14 00:53:14;;;;;;;3.70;2.50;;;7.30;89.60;6.50;99320.00;;;;5115030;28;20220;-72
2021/12/14 00:55:47;;;;;;;2.67;2.13;;;7.30;89.20;6.40;99325.00;;;;5114842;28;20232;-71
2021/12/14 00:58:14;;;;;;;1.97;1.50;;;7.20;89.20;6.50;99323.00;;;;5113883;28;20202;-72
2021/12/14 01:00:45;;;;;;;2.30;2.17;;;7.30;89.50;6.40;99317.00;;;;5114967;28;20285;-72
2021/12/14 01:03:13;;;;;;;2.90;2.10;;;7.20;89.50;6.40;99318.00;;;;5114775;28;20268;-72
2021/12/14 01:05:45;;;;;;;1.50;1.40;;;7.20;89.70;6.40;99326.00;;;;5114815;28;20279;-72
2021/12/14 01:08:17;;;;;;;0.87;0.87;;;7.20;90.60;6.40;99334.00;;;;5114897;28;20652;-72
2021/12/14 01:10:51;;;;;;;2.87;2.33;;;7.20;90.00;6.40;99341.00;;;;5096855;28;20308;-72
2021/12/14 01:13:23;;;;;;;1.40;1.37;;;7.20;90.00;6.40;99344.00;;;;5114907;28;20189;-73
2021/12/14 01:16:02;;;;;;;4.77;2.57;;;7.20;90.20;6.50;99349.00;;;;5114907;28;20193;-72
2021/12/14 01:18:45;;;;;;;8.10;1.67;;;7.20;90.30;6.50;99339.00;;;;5114626;28;20207;-72
2021/12/14 01:21:24;;;;;;;1.57;1.50;;;7.30;90.30;6.70;99338.00;;;;5114801;28;20204;-72
2021/12/14 01:24:01;;;;;;;1.30;1.20;;;7.40;89.30;6.80;99325.00;;;;5114506;28;20225;-72
2021/12/14 01:26:32;;;;;;;2.67;1.40;;;7.40;88.80;6.80;99346.00;;;;5114576;28;20197;-71
2021/12/14 01:29:01;;;;;;;1.10;1.10;;;7.40;88.30;6.70;99349.00;;;;5114400;28;20204;-71
2021/12/14 01:31:35;;;;;;;0.77;0.77;;;7.40;89.90;6.50;99346.00;;;;5114400;28;20290;-72
2021/12/14 01:34:06;;;;;;;1.37;1.37;;;7.30;87.00;6.30;99351.00;;;;5114709;28;20190;-72
2021/12/14 01:36:42;;;;;;;1.40;1.30;;;7.10;87.30;6.20;99347.00;;;;5114485;28;20768;-72
2021/12/14 01:39:45;;;;;;;1.77;1.67;;;7.00;87.90;6.20;99356.00;;;;5114285;28;20216;-72
2021/12/14 01:42:19;;;;;;;1.90;1.43;;;7.00;88.40;6.20;99357.00;;;;5114383;28;20215;-71
2021/12/14 01:44:54;;;;;;;1.50;1.40;;;7.00;88.50;6.40;99352.00;;;;5114175;28;20209;-72
2021/12/14 01:47:25;;;;;;;1.40;1.33;;;7.00;88.70;6.10;99351.00;;;;5096449;28;20558;-72
2021/12/14 01:49:53;;;;;;;0.93;0.93;;;6.90;87.50;6.20;99342.00;;;;5096564;28;20212;-72
2021/12/14 01:52:22;;;;;;;6.03;1.47;;;6.90;88.00;6.20;99345.00;;;;5096223;28;20633;-71
2021/12/14 01:55:01;;;;;;;1.53;1.17;;;6.90;87.60;6.10;99354.00;;;;5114188;28;20510;-72
2021/12/14 01:57:34;;;;;;;0.80;0.80;;;6.90;86.40;6.10;99357.00;;;;5114136;28;20200;-72
2021/12/14 02:00:04;;;;;;;2.33;1.47;;;6.80;86.60;5.90;99356.00;;;;5114148;28;20709;-72
2021/12/14 02:02:42;;;;;;;0.80;0.80;;;6.70;86.90;6.00;99356.00;;;;5114080;28;20228;-72
2021/12/14 02:05:20;;;;;;;0.73;0.73;;;6.70;87.60;6.00;99350.00;;;;5114344;28;20207;-72
2021/12/14 02:07:47;;;;;;;1.00;1.00;;;6.80;87.30;6.20;99350.00;;;;5114026;28;20249;-72
2021/12/14 02:10:22;;;;;;;1.03;1.03;;;6.80;87.50;6.10;99355.00;;;;5098961;28;20208;-71
2021/12/14 02:12:50;;;;;;;2.27;1.97;;;6.80;86.70;5.90;99352.00;;;;5099747;28;20623;-72
2021/12/14 02:15:23;;;;;;;0.60;0.60;;;6.70;86.80;6.00;99352.00;;;;5117662;28;20209;-72
2021/12/14 02:17:57;;;;;;;1.70;1.27;;;6.70;87.70;5.90;99351.00;;;;5117498;28;20211;-72
2021/12/14 02:20:30;;;;;;;0.80;0.80;;;6.70;87.20;5.70;99345.00;;;;5117487;28;20194;-71
2021/12/14 02:23:02;;;;;;;0.70;0.70;;;6.50;87.30;5.80;99347.00;;;;5117325;28;20193;-72
2021/12/14 02:25:28;;;;;;;0.60;0.60;;;6.50;88.70;5.80;99343.00;;;;5117404;28;20213;-72
2021/12/14 02:27:59;;;;;;;1.03;1.03;;;6.50;87.90;5.80;99348.00;;;;5117272;28;20193;-72
2021/12/14 02:30:31;;;;;;;0.93;0.93;;;6.50;88.80;5.70;99348.00;;;;5117298;28;20209;-73
2021/12/14 02:33:08;;;;;;;0.90;0.90;;;6.50;87.90;5.70;99348.00;;;;5117308;28;20229;-71
2021/12/14 02:35:35;;;;;;;0.80;0.80;;;6.50;88.10;5.70;99343.00;;;;5117345;28;20323;-72
2021/12/14 02:38:11;;;;;;;1.20;1.20;;;6.50;88.10;5.60;99337.00;;;;5117281;28;20209;-72
2021/12/14 02:40:54;;;;;;;0.60;0.60;;;6.40;88.30;5.60;99340.00;;;;5117498;28;20205;-72
2021/12/14 02:43:27;;;;;;;0.83;0.83;;;6.40;88.30;5.70;99333.00;;;;5116982;28;20222;-73
2021/12/14 02:46:05;;;;;;;0.83;0.83;;;6.40;88.00;5.60;99346.00;;;;5117226;28;20225;-72
2021/12/14 02:48:33;;;;;;;1.00;1.00;;;6.30;87.90;5.50;99340.00;;;;5117035;28;20230;-72
2021/12/14 02:51:12;;;;;;;0.73;0.73;;;6.30;87.60;5.40;99336.00;;;;5116929;28;20215;-72
2021/12/14 02:53:43;;;;;;;1.17;1.17;;;6.20;87.50;5.40;99343.00;;;;5116888;28;20190;-73
2021/12/14 02:56:14;;;;;;;1.30;1.30;;;6.10;88.10;5.30;99337.00;;;;5116976;28;20197;-72
2021/12/14 02:58:43;;;;;;;2.30;1.77;;;6.10;88.60;5.30;99330.00;;;;5116891;28;20214;-72
2021/12/14 03:01:13;;;;;;;0.70;0.70;;;6.10;88.60;5.20;99335.00;;;;5116815;28;20543;-72
2021/12/14 03:03:40;;;;;;;1.07;1.07;;;6.00;88.90;5.30;99341.00;;;;5116658;28;20214;-73
2021/12/14 03:06:10;;;;;;;1.17;1.17;;;6.10;89.30;5.30;99341.00;;;;5116734;28;20269;-72
2021/12/14 03:08:45;;;;;;;0.93;0.93;;;6.10;89.10;5.10;99331.00;;;;5116767;28;20547;-72
2021/12/14 03:11:15;;;;;;;0.90;0.90;;;5.90;89.40;5.30;99338.00;;;;5116652;28;20687;-72
2021/12/14 03:13:48;;;;;;;1.37;1.27;;;6.00;89.60;5.20;99327.00;;;;5116679;28;20560;-72
2021/12/14 03:16:19;;;;;;;1.00;1.00;;;6.00;89.60;5.10;99333.00;;;;5116611;28;20195;-73
2021/12/14 03:18:50;;;;;;;0.90;0.90;;;6.00;89.60;5.30;99335.00;;;;5116512;28;20242;-72
2021/12/14 03:21:23;;;;;;;3.23;2.27;;;6.00;90.40;5.30;99324.00;;;;5115701;28;20190;-73
2021/12/14 03:23:53;;;;;;;1.17;1.17;;;6.10;89.70;5.20;99328.00;;;;5116464;28;20222;-72
2021/12/14 03:26:26;;;;;;;0.83;0.83;;;6.00;90.30;5.10;99330.00;;;;5116304;28;20665;-72
2021/12/14 03:28:59;;;;;;;1.33;1.33;;;5.90;90.00;5.20;99331.00;;;;5116428;28;20276;-72
2021/12/14 03:31:30;;;;;;;0.83;0.83;;;5.90;90.40;5.10;99335.00;;;;5098462;28;20225;-72
2021/12/14 03:34:03;;;;;;;0.80;0.80;;;6.00;90.50;5.20;99340.00;;;;5115313;28;20221;-73
2021/12/14 03:36:34;;;;;;;3.57;2.67;;;6.00;90.80;5.20;99346.00;;;;5116272;28;20210;-72
2021/12/14 03:39:12;;;;;;;1.13;1.13;;;5.90;90.90;5.20;99352.00;;;;5116353;28;20201;-72
2021/12/14 03:41:44;;;;;;;1.10;1.10;;;5.90;90.80;5.20;99356.00;;;;5116223;28;20276;-73
2021/12/14 03:44:15;;;;;;;0.87;0.87;;;6.00;90.60;5.10;99346.00;;;;5116184;28;20287;-73
2021/12/14 03:46:52;;;;;;;1.37;1.30;;;5.90;90.40;5.20;99354.00;;;;5116140;28;20218;-72
2021/12/14 03:49:23;;;;;;;1.17;1.17;;;6.00;90.60;5.20;99352.00;;;;5116008;28;20585;-72
2021/12/14 03:51:51;;;;;;;1.03;1.03;;;6.00;90.60;5.30;99347.00;;;;5115986;28;20247;-72
2021/12/14 03:54:19;;;;;;;1.07;1.07;;;6.00;90.10;5.30;99360.00;;;;5097936;28;20226;-72
2021/12/14 03:56:48;;;;;;;1.17;1.17;;;6.00;89.80;5.20;99357.00;;;;5115901;28;20218;-70
2021/12/14 03:59:15;;;;;;;0.90;0.90;;;5.90;89.50;5.20;99377.00;;;;5115878;28;20228;-72
2021/12/14 04:01:46;;;;;;;1.13;1.13;;;5.90;89.60;5.10;99366.00;;;;5115815;28;20236;-73
2021/12/14 04:04:21;;;;;;;0.93;0.93;;;5.90;88.70;5.00;99365.00;;;;5115876;28;20218;-72
2021/12/14 04:06:54;;;;;;;1.07;1.07;;;5.80;89.40;5.10;99360.00;;;;5115945;28;20204;-72
2021/12/14 04:09:25;;;;;;;1.57;1.57;;;5.80;89.10;5.00;99353.00;;;;5115768;28;20342;-72
2021/12/14 04:11:54;;;;;;;0.70;0.70;;;5.80;88.20;5.00;99361.00;;;;5115729;28;20222;-73
2021/12/14 04:14:21;;;;;;;0.90;0.90;;;5.70;88.50;5.00;99339.00;;;;5115636;28;20355;-73
2021/12/14 04:16:51;;;;;;;0.90;0.90;;;5.80;88.40;4.90;99332.00;;;;5115465;28;20305;-72
2021/12/14 04:19:22;;;;;;;0.80;0.80;;;5.70;88.60;4.70;99330.00;;;;5115514;28;20301;-72
2021/12/14 04:21:52;;;;;;;0.73;0.73;;;5.60;90.00;4.70;99331.00;;;;5115583;28;20227;-72
2021/12/14 04:24:23;;;;;;;0.73;0.73;;;5.50;90.20;4.80;99335.00;;;;5115468;28;20249;-73
2021/12/14 04:26:51;;;;;;;0.73;0.73;;;5.60;90.90;4.80;99327.00;;;;5115681;28;20239;-73
2021/12/14 04:29:18;;;;;;;1.30;1.27;;;5.60;90.00;4.70;99329.00;;;;5115407;28;20232;-72
2021/12/14 04:31:46;;;;;;;1.03;1.03;;;5.50;91.20;4.80;99328.00;;;;5115180;28;20285;-72
2021/12/14 04:34:17;;;;;;;0.63;0.63;;;5.60;90.20;4.60;99326.00;;;;5115364;28;20189;-73
2021/12/14 04:36:50;;;;;;;0.80;0.80;;;5.50;90.30;4.70;99318.00;;;;5115159;28;20293;-72
2021/12/14 04:39:36;;;;;;;2.33;1.37;;;5.50;90.40;4.60;99319.00;;;;5097351;28;20203;-73
2021/12/14 04:53:43;;;;;;;0.83;0.73;;;5.30;92.40;4.60;99282.00;;;;5115100;28;20218;-72
2021/12/14 04:56:17;;;;;;;0.67;0.67;;;5.40;92.00;4.60;99307.00;;;;5115067;28;20195;-72
2021/12/14 04:58:51;;;;;;;0.67;0.67;;;5.40;91.60;4.70;99309.00;;;;5114860;28;20260;-72
2021/12/14 05:01:18;;;;;;;2.57;2.30;;;5.40;91.00;4.80;99307.00;;;;5114941;28;20301;-73
2021/12/14 05:03:51;;;;;;;11.53;1.47;;;5.50;90.80;4.80;99317.00;;;;5114807;28;20232;-73
2021/12/14 05:06:21;;;;;;;1.13;1.13;;;5.50;90.40;4.70;99314.00;;;;5114855;28;20437;-73
2021/12/14 05:11:37;;;;;;;0.90;0.90;;;5.50;90.20;4.60;99311.00;;;;5114742;28;20633;-72
2021/12/14 05:14:11;;;;;;;1.10;1.10;;;5.50;90.30;4.70;99289.00;;;;5114612;28;20266;-72
2021/12/14 05:16:39;;;;;;;1.63;1.53;;;5.40;90.40;4.60;99306.00;;;;5114789;28;20277;-72
2021/12/14 05:19:10;;;;;;;1.00;1.00;;;5.50;90.70;4.70;99322.00;;;;5114586;28;20211;-72
2021/12/14 05:21:42;;;;;;;0.90;0.90;;;5.50;90.80;4.60;99321.00;;;;5114593;28;20210;-72
2021/12/14 05:24:11;;;;;;;1.00;1.00;;;5.40;90.60;4.70;99259.00;;;;5114578;28;20217;-72
2021/12/14 05:26:42;;;;;;;0.80;0.80;;;5.50;90.60;4.70;99318.00;;;;5114463;28;20222;-72
2021/12/14 05:29:10;;;;;;;1.20;1.20;;;5.50;90.80;4.70;99324.00;;;;5114612;28;20313;-72
2021/12/14 05:31:47;;;;;;;1.83;1.73;;;5.50;90.30;4.80;99304.00;;;;5114597;28;20645;-73
2021/12/14 05:34:16;;;;;;;1.73;1.63;;;5.60;90.60;5.00;99307.00;;;;5114364;28;20297;-72
2021/12/14 05:36:45;;;;;;;1.37;1.33;;;5.60;90.30;4.80;99289.00;;;;5114508;28;20213;-73
2021/12/14 05:39:29;;;;;;;1.50;1.50;;;5.60;89.00;4.90;99270.00;;;;5114534;28;20614;-72
2021/12/14 05:44:47;;;;;;;1.37;1.27;;;5.50;89.10;4.70;99279.00;;;;5116608;28;20667;-72
2021/12/14 05:47:18;;;;;;;1.73;1.63;;;5.40;88.80;4.50;99289.00;;;;5100118;28;20286;-73
2021/12/14 05:49:48;;;;;;;3.60;1.13;;;5.40;89.30;4.50;99288.00;;;;5117930;28;20226;-73
2021/12/14 05:52:21;;;;;;;0.80;0.80;;;5.30;87.90;4.40;99299.00;;;;5117941;28;20197;-73
2021/12/14 05:54:48;;;;;;;1.07;1.07;;;5.30;87.70;4.50;99304.00;;;;5117847;28;20218;-73
2021/12/14 05:57:21;;;;;;;0.67;0.67;;;5.20;88.60;4.10;99312.00;;;;5099886;28;20250;-74
2021/12/14 05:59:50;;;;;;;2.50;1.37;;;5.00;88.00;4.20;99285.00;;;;5117822;28;20280;-73
2021/12/14 06:02:19;;;;;;;0.90;0.90;;;5.00;88.20;4.10;99276.00;;;;5117619;28;20273;-73
2021/12/14 06:04:50;;;;;;;1.00;1.00;;;4.90;89.10;4.00;99277.00;;;;5117677;28;20258;-73
2021/12/14 06:07:20;;;;;;;1.00;1.00;;;4.90;89.10;4.10;99267.00;;;;5117735;28;20756;-73
2021/12/14 06:09:52;;;;;;;0.70;0.70;;;4.90;88.60;4.10;99283.00;;;;5117465;28;20633;-74
2021/12/14 06:12:21;;;;;;;1.33;0.87;;;4.90;88.60;4.20;99285.00;;;;5099951;28;20296;-73
2021/12/14 06:14:52;;;;;;;1.60;1.17;;;4.90;87.80;4.10;99290.00;;;;5117481;28;20284;-73
2021/12/14 06:17:23;;;;;;;1.17;1.17;;;4.90;86.90;3.80;99276.00;;;;5117370;28;20228;-73
2021/12/14 06:19:54;;;;;;;1.13;1.07;;;4.70;87.70;4.00;99284.00;;;;5099599;28;20205;-73
2021/12/14 06:22:23;;;;;;;1.17;1.17;;;4.70;88.60;4.00;99279.00;;;;5117376;28;20330;-73
2021/12/14 06:24:53;;;;;;;1.20;1.20;;;4.80;87.90;3.90;99278.00;;;;5117224;28;20681;-74
2021/12/14 06:27:25;;;;;;;0.90;0.90;;;4.80;88.00;4.00;99262.00;;;;5099603;28;20259;-74
2021/12/14 06:29:56;;;;;;;0.70;0.70;;;4.80;88.20;4.00;99259.00;;;;5117413;28;20225;-73
2021/12/14 06:32:27;;;;;;;0.93;0.93;;;4.80;88.10;4.10;99270.00;;;;5117155;28;20312;-74
2021/12/14 06:34:57;;;;;;;0.73;0.73;;;4.90;88.50;4.00;99279.00;;;;5117293;28;20205;-74
2021/12/14 06:38:28;;;;;;;0.93;0.93;;;4.80;87.80;4.00;99286.00;;;;5117274;28;20189;-74
2021/12/14 06:41:03;;;;;;;1.73;1.63;;;4.80;87.70;4.10;99274.00;;;;5111293;28;20280;-73
2021/12/14 06:43:34;;;;;;;1.67;1.57;;;4.90;88.10;4.10;99283.00;;;;5116996;28;20296;-73
2021/12/14 06:46:05;;;;;;;1.00;1.00;;;5.00;87.90;4.00;99271.00;;;;5116944;28;20676;-72
2021/12/14 06:48:38;;;;;;;1.07;1.07;;;5.00;87.60;4.10;99250.00;;;;5116913;28;20294;-73
2021/12/14 06:51:11;;;;;;;0.97;0.87;;;4.90;87.70;4.20;99254.00;;;;5117076;28;20194;-73
2021/12/14 06:53:38;;;;;;;1.73;1.13;;;5.00;87.80;4.20;99254.00;;;;5116878;28;20694;-73
2021/12/14 06:56:11;;;;;;;1.70;1.60;;;5.00;87.30;4.10;99249.00;;;;5115698;28;20281;-74
2021/12/14 06:58:50;;;;;;;1.30;1.23;;;5.00;87.10;4.10;99236.00;;;;5116633;28;20221;-73
2021/12/14 07:01:22;;;;;;;1.43;1.40;;;5.00;87.40;4.20;99216.00;;;;5098874;28;20579;-73
2021/12/14 07:03:52;;;;;;;1.20;1.20;;;5.00;87.70;4.20;99227.00;;;;5116791;28;20232;-73
2021/12/14 07:06:27;;;;;;;1.33;1.33;;;5.00;87.80;4.20;99238.00;;;;5116707;28;20633;-73
2021/12/14 07:09:06;;;;;;;0.73;0.73;;;5.10;88.00;4.30;99227.00;;;;5116669;28;20198;-73
2021/12/14 07:11:36;;;;;;;0.80;0.80;;;5.10;88.00;4.40;99221.00;;;;5116685;28;20218;-73
2021/12/14 07:14:37;;;;;;;0.90;0.90;;;5.20;88.10;4.50;99226.00;;;;5116591;28;20496;-73
2021/12/14 07:17:16;;;;;;;1.20;1.20;;;5.20;88.00;4.50;99228.00;;;;5098476;28;20327;-73
2021/12/14 07:19:52;;;;;;;1.37;1.23;;;5.30;87.90;4.50;99222.00;;;;5116663;28;20200;-74
2021/12/14 07:22:42;;;;;;;1.73;1.63;;;5.30;88.00;4.40;99224.00;;;;5116246;28;20213;-71
2021/12/14 07:25:14;;;;;;;1.20;1.20;;;5.30;88.70;4.50;99227.00;;;;5116303;28;20301;-72
2021/12/14 07:27:42;;;;;;;1.30;1.20;;;5.30;88.20;4.40;99241.00;;;;5116256;28;20221;-72
2021/12/14 07:30:14;;;;;;;1.20;1.20;;;;;4.60;99244.00;;;;5116229;28;20217;-72
2021/12/14 07:32:47;;;;;;;0.80;0.80;;;5.30;86.00;4.40;99262.00;;;;5098396;28;20597;-72
2021/12/14 07:35:26;;;;;;;1.20;1.10;;;5.20;85.30;4.20;99242.00;;;;5116211;28;20205;-73
2021/12/14 07:37:56;;;;;;;1.17;1.17;;;5.10;85.10;4.20;99240.00;;;;5116349;28;20609;-71
2021/12/14 07:40:24;;;;;;;0.93;0.93;;;5.10;85.60;4.30;99249.00;;;;5116338;28;20714;-71
2021/12/14 07:43:18;;;;;;;0.83;0.83;;;5.00;85.90;4.40;99257.00;;;;5098151;28;20249;-72
2021/12/14 07:45:46;;;;;;;0.80;0.80;;;5.10;85.90;4.40;99251.00;;;;5116181;28;20204;-72
2021/12/14 07:48:14;;;;;;;0.93;0.93;;;5.20;85.60;4.50;99253.00;;;;5115893;28;20222;-72
2021/12/14 07:50:48;;;;;;;3.50;1.47;;;5.20;85.50;4.40;99241.00;;;;5115948;28;20198;-72
2021/12/14 07:53:30;;;;;;;0.77;0.77;;;5.30;84.70;4.20;99246.00;;;;5116081;28;20221;-72
2021/12/14 07:55:57;;;;;;;0.90;0.90;;;5.10;84.50;4.20;99252.00;;;;5115906;28;20220;-72
2021/12/14 07:58:33;;;;;;;0.90;0.90;;;5.10;84.50;4.20;99249.00;;;;5114986;28;20288;-72
2021/12/14 08:01:00;;;;;;;1.13;1.07;;;5.00;85.00;4.20;99268.00;;;;5115972;28;20217;-74
2021/12/14 08:03:33;;;;;;;2.13;1.57;;;5.10;85.30;4.40;99275.00;;;;5115916;28;20283;-73
2021/12/14 08:06:03;;;;;;;1.50;0.83;;;5.20;85.60;4.60;99289.00;;;;5115905;28;20273;-74
2021/12/14 08:08:42;;;;;;;1.00;1.00;;;5.30;85.50;4.70;99310.00;;;;5115853;28;20198;-73
2021/12/14 08:11:40;;;;;;;2.63;1.97;;;5.40;84.80;4.70;99312.00;;;;5115957;28;20269;-74
2021/12/14 08:14:16;;;;;;;1.20;1.20;;;5.50;83.70;4.80;99310.00;;;;5115899;28;20205;-74
2021/12/14 08:16:47;;;;;;;0.93;0.93;;;5.50;84.60;4.80;99318.00;;;;5115729;28;20309;-71
2021/12/14 08:19:25;;;;;;;1.07;1.07;;;5.60;83.80;4.70;99320.00;;;;5115605;28;20280;-71
2021/12/14 08:21:52;;;;;;;1.57;1.47;;;5.50;82.70;4.60;99330.00;;;;5097663;28;20593;-73
2021/12/14 08:24:19;;;;;;;0.87;0.87;;;5.40;83.40;4.70;99332.00;;;;5115470;28;20335;-71
2021/12/14 08:26:53;;;;;;;1.60;1.50;;;5.50;83.10;4.60;99331.00;;;;5115312;28;20279;-71
2021/12/14 08:29:23;;;;;;;1.00;1.00;;;5.50;82.80;4.70;99328.00;;;;5115428;28;20201;-72
2021/12/14 08:31:54;;;;;;;1.03;1.03;;;5.50;83.40;4.70;99339.00;;;;5097250;28;20251;-72
2021/12/14 08:34:26;;;;;;;1.33;1.07;;;5.50;83.00;4.70;99327.00;;;;5115229;28;20531;-72
2021/12/14 08:37:00;;;;;;;1.47;1.37;;;5.50;83.30;4.80;99311.00;;;;5115385;28;20263;-71
2021/12/14 08:39:30;;;;;;;1.57;1.47;;;5.50;83.40;4.80;99298.00;;;;5115276;28;20277;-73
2021/12/14 08:42:11;;;;;;;2.90;2.23;;;5.60;83.40;4.90;99294.00;;;;5115318;28;20244;-71
2021/12/14 08:44:50;;;;;;;1.10;1.00;;;5.60;83.20;5.00;99314.00;;;;5115134;28;20229;-70
2021/12/14 08:47:27;;;;;;;1.10;1.10;;;5.70;83.40;5.20;99300.00;;;;5115299;28;20660;-72
2021/12/14 08:49:55;;;;;;;0.73;0.73;;;5.90;83.10;5.40;99311.00;;;;5115065;28;20198;-71
2021/12/14 08:52:23;;;;;;;1.20;1.10;;;6.00;82.20;5.50;99310.00;;;;5115187;28;20217;-72
2021/12/14 08:54:51;;;;;;;0.80;0.80;;;6.10;82.00;5.50;99306.00;;;;5097045;28;20225;-72
2021/12/14 08:57:25;;;;;;;1.10;1.10;;;6.20;81.40;5.50;99304.00;;;;5096985;28;20326;-72
2021/12/14 08:59:55;;;;;;;0.83;0.83;;;6.20;81.30;5.60;99295.00;;;;5114906;28;20631;-71
2021/12/14 09:02:25;;;;;;;0.83;0.83;;;6.30;80.80;5.40;99293.00;;;;5097096;28;20247;-71
2021/12/14 09:05:00;;;;;;;0.80;0.80;;;6.20;79.60;5.60;99310.00;;;;5114955;28;20217;-72
2021/12/14 09:07:31;;;;;;;0.80;0.80;;;6.30;80.40;5.70;99330.00;;;;5114764;28;20240;-72
2021/12/14 09:10:00;;;;;;;0.63;0.63;;;6.40;80.20;5.90;99319.00;;;;5114719;28;20663;-71
2021/12/14 09:12:34;;;;;;;0.80;0.80;;;6.50;80.40;5.70;99322.00;;;;5096886;28;20231;-72
2021/12/14 09:15:11;;;;;;;0.73;0.73;;;6.40;77.80;5.80;99338.00;;;;5114799;28;20189;-71
2021/12/14 09:17:38;;;;;;;3.13;0.80;;;6.50;78.70;5.90;99322.00;;;;5114587;28;20237;-72
2021/12/14 09:20:13;;;;;;;0.70;0.70;;;6.60;77.70;5.90;99314.00;;;;5113737;28;20234;-72
2021/12/14 09:22:45;;;;;;;0.77;0.77;;;6.50;77.20;5.90;99321.00;;;;5114678;28;20272;-71
2021/12/14 09:25:20;;;;;;;0.90;0.90;;;6.60;77.00;6.00;99317.00;;;;5114519;28;20250;-71
2021/12/14 09:27:47;;;;;;;0.60;0.60;;;6.70;77.20;6.00;99326.00;;;;5096903;28;20342;-72
2021/12/14 09:30:20;;;;;;;0.57;0.57;;;6.70;76.70;6.00;99324.00;;;;5114481;28;20277;-71
2021/12/14 09:32:47;;;;;;;1.10;1.10;;;6.70;75.70;6.00;99316.00;;;;5114343;28;20297;-71
2021/12/14 09:35:21;;;;;;;17.33;1.23;;;6.70;76.60;6.10;99321.00;;;;5114493;28;20228;-72
2021/12/14 09:37:50;;;;;;;0.70;0.70;;;6.80;76.90;6.20;99311.00;;;;5114420;28;20265;-72
2021/12/14 09:40:24;;;;;;;1.00;1.00;;;6.90;76.50;6.20;99289.00;;;;5114435;28;20216;-71
2021/12/14 09:42:50;;;;;;;0.70;0.70;;;6.90;76.00;6.20;99311.00;;;;5114407;28;20287;-72
2021/12/14 09:45:26;;;;;;;0.70;0.70;;;6.90;76.00;6.30;99325.00;;;;5114227;28;20368;-73
2021/12/14 09:47:54;;;;;;;0.70;0.70;;;7.00;76.00;6.50;99334.00;;;;5114503;28;20657;-71
2021/12/14 09:50:29;;;;;;;0.60;0.60;;;7.10;75.50;6.50;99341.00;;;;5114165;28;20636;-71
2021/12/14 09:53:05;;;;;;;0.50;0.50;;;7.10;75.30;6.70;99326.00;;;;5114230;28;20229;-72
2021/12/14 09:55:37;;;;;;;0.50;0.50;;;7.20;74.80;6.60;99332.00;;;;5114196;28;20178;-71
2021/12/14 09:58:11;;;;;;;1.00;0.97;;;7.20;74.50;6.40;99321.00;;;;5114196;28;20261;-71
2021/12/14 10:00:44;;;;;;;0.70;0.70;;;7.10;74.40;6.40;99322.00;;;;5114271;28;20228;-72
2021/12/14 10:03:11;;;;;;;0.97;0.97;;;7.10;75.10;6.20;99316.00;;;;5114057;28;20389;-72
2021/12/14 10:05:47;;;;;;;0.77;0.77;;;7.00;74.50;6.20;99320.00;;;;5096192;28;20318;-73
2021/12/14 10:08:20;;;;;;;0.80;0.80;;;6.90;76.00;6.30;99330.00;;;;5096373;28;20611;-71
2021/12/14 10:10:57;;;;;;;0.67;0.67;;;7.00;75.10;6.50;99328.00;;;;5114066;28;20295;-73
2021/12/14 10:13:27;;;;;;;1.30;1.30;;;7.10;75.50;6.50;99319.00;;;;5114039;28;20176;-75
2021/12/14 10:15:58;;;;;;;0.57;0.57;;;7.10;75.00;6.70;99315.00;;;;5113963;28;20275;-72
2021/12/14 10:18:29;;;;;;;1.17;1.17;;;7.20;75.20;6.30;99314.00;;;;5113792;28;20211;-72
2021/12/14 10:21:05;;;;;;;1.70;1.43;;;7.00;75.30;6.40;99315.00;;;;5113785;28;20274;-72
2021/12/14 10:23:38;;;;;;;0.60;0.60;;;7.00;75.70;6.40;99322.00;;;;5096078;28;20214;-71
2021/12/14 10:26:09;;;;;;;1.03;1.03;;;7.10;76.10;6.70;99320.00;;;;5113753;28;20305;-71
2021/12/14 10:28:40;;;;;;;0.60;0.60;;;7.20;75.80;6.90;99309.00;;;;5113826;28;20222;-72
2021/12/14 10:31:15;;;;;;;1.97;1.00;;;7.40;74.20;6.80;99306.00;;;;5116437;28;20273;-72
2021/12/14 10:33:43;;;;;;;0.60;0.60;;;7.40;73.80;6.90;99309.00;;;;5117278;28;20220;-73
2021/12/14 10:36:23;;;;;;;1.23;1.17;;;7.50;74.40;6.80;99316.00;;;;5117287;28;20196;-72
2021/12/14 10:39:07;;;;;;;0.83;0.80;;;7.50;74.30;6.70;99313.00;;;;5117390;28;20693;-73
2021/12/14 10:44:32;;;;;;;0.70;0.70;;;7.40;74.50;6.40;99323.00;;;;5117054;28;20286;-73
2021/12/14 10:47:02;;;;;;;1.60;1.37;;;7.30;75.40;6.70;99298.00;;;;5117267;28;20282;-73
2021/12/14 10:49:28;;;;;;;0.60;0.60;;;7.40;75.10;6.70;99320.00;;;;5116909;28;20225;-74
2021/12/14 10:52:01;;;;;;;0.80;0.80;;;7.40;75.20;6.60;99318.00;;;;5116928;28;20224;-72
2021/12/14 10:54:31;;;;;;;0.83;0.83;;;7.30;75.20;6.80;99321.00;;;;5116923;28;20221;-71
2021/12/14 10:57:03;;;;;;;2.20;1.00;;;7.40;75.30;6.70;99327.00;;;;5116930;28;20292;-71
2021/12/14 10:59:34;;;;;;;1.43;1.37;;;7.40;75.90;6.40;99327.00;;;;5116864;28;20214;-72
2021/12/14 11:02:02;;;;;;;1.23;1.23;;;7.10;76.90;6.50;99316.00;;;;5116860;28;20210;-72
2021/12/14 11:04:37;;;;;;;1.10;1.10;;;7.20;76.90;6.50;99313.00;;;;5116651;28;20247;-71
2021/12/14 11:07:08;;;;;;;0.67;0.67;;;7.20;76.90;6.50;99322.00;;;;5116840;28;20279;-73
2021/12/14 11:09:45;;;;;;;1.73;1.63;;;7.30;76.90;6.70;99327.00;;;;5116619;28;20204;-73
2021/12/14 11:12:23;;;;;;;1.30;1.30;;;7.30;77.20;6.60;99305.00;;;;5116586;28;20222;-72
2021/12/14 11:14:52;;;;;;;1.57;1.47;;;7.30;77.00;6.50;99332.00;;;;5116689;28;20208;-72
2021/12/14 11:20:15;;;;;;;1.20;1.10;;;7.40;77.60;6.80;99321.00;;;;5116556;28;20206;-73
2021/12/14 11:22:52;;;;;;;1.30;1.20;;;7.40;77.50;6.70;99313.00;;;;5116404;28;20649;-71
2021/12/14 11:25:23;;;;;;;2.30;1.77;;;7.40;77.30;6.60;99306.00;;;;5116332;28;20231;-70
2021/12/14 11:28:00;;;;;;;1.03;1.03;;;7.40;77.20;6.60;99313.00;;;;5116293;28;20302;-72
2021/12/14 11:30:34;;;;;;;1.03;1.03;;;7.30;78.80;6.50;99315.00;;;;5116400;28;20252;-71
2021/12/14 11:33:12;;;;;;;1.43;1.20;;;7.20;77.80;6.40;99317.00;;;;5116326;28;20301;-69
2021/12/14 11:35:44;;;;;;;1.00;1.00;;;7.20;78.60;6.40;99317.00;;;;5116332;28;20200;-72
2021/12/14 11:38:32;;;;;;;0.90;0.90;;;7.10;78.70;6.50;99330.00;;;;5116061;28;20224;-72
2021/12/14 11:41:04;;;;;;;2.20;2.00;;;7.20;79.60;6.60;99329.00;;;;5115051;28;20791;-70
2021/12/14 11:43:32;;;;;;;1.83;1.73;;;7.20;79.80;6.70;99315.00;;;;5115501;28;20309;-70
2021/12/14 11:46:06;;;;;;;1.67;1.57;;;7.30;79.60;6.80;99316.00;;;;5116047;28;20607;-70
2021/12/14 11:48:40;;;;;;;1.50;1.13;;;7.40;79.60;6.70;99304.00;;;;5115936;28;20225;-70
2021/12/14 11:51:10;;;;;;;1.40;1.40;;;7.40;79.40;6.60;99295.00;;;;5116125;28;20263;-71
2021/12/14 11:53:39;;;;;;;1.30;1.20;;;7.30;79.40;6.70;99308.00;;;;5115851;28;20220;-71
2021/12/14 11:56:13;;;;;;;1.63;1.50;;;7.30;79.80;6.80;99300.00;;;;5115911;28;20672;-70
2021/12/14 11:58:43;;;;;;;1.50;1.40;;;7.40;80.30;6.80;99305.00;;;;5115794;28;20282;-73
2021/12/14 12:01:18;;;;;;;1.70;1.53;;;7.40;80.30;6.90;99309.00;;;;5115963;28;20225;-71